createdAt,value
2022-12-12T00:01:29.683Z,2.40
2022-12-12T00:03:57.572Z,2.40
2022-12-12T00:06:25.281Z,2.40
2022-12-12T00:08:52.896Z,2.40
2022-12-12T00:11:21.719Z,2.30
2022-12-12T00:13:50.599Z,2.40
2022-12-12T00:16:17.730Z,2.30
2022-12-12T00:18:44.935Z,2.40
2022-12-12T00:21:25.812Z,2.50
2022-12-12T00:23:53.203Z,2.40
2022-12-12T00:26:22.316Z,2.40
2022-12-12T00:28:49.918Z,2.50
2022-12-12T00:31:17.760Z,2.30
2022-12-12T00:33:46.652Z,2.40
2022-12-12T00:36:13.742Z,2.40
2022-12-12T00:38:40.606Z,2.40
2022-12-12T00:41:07.538Z,2.40
2022-12-12T00:43:34.796Z,2.40
2022-12-12T00:46:02.749Z,2.40
2022-12-12T00:48:30.287Z,2.50
2022-12-12T00:50:57.731Z,2.40
2022-12-12T00:53:24.857Z,2.50
2022-12-12T00:55:59.058Z,2.50
2022-12-12T00:58:27.175Z,2.40
2022-12-12T01:00:54.418Z,2.40
2022-12-12T01:03:22.146Z,2.30
2022-12-12T01:05:49.446Z,2.20
2022-12-12T01:08:16.375Z,2.20
2022-12-12T01:10:43.280Z,2.20
2022-12-12T01:13:10.249Z,2.20
2022-12-12T01:15:37.083Z,2.30
2022-12-12T01:18:03.948Z,2.20
2022-12-12T01:20:31.220Z,2.30
2022-12-12T01:22:58.067Z,2.20
2022-12-12T01:25:25.036Z,2.20
2022-12-12T01:27:51.915Z,2.10
2022-12-12T01:30:22.393Z,2.00
2022-12-12T01:32:49.767Z,2.10
2022-12-12T01:35:17.492Z,2.10
2022-12-12T01:37:44.630Z,2.10
2022-12-12T01:40:22.537Z,2.00
2022-12-12T01:42:50.757Z,2.00
2022-12-12T01:45:58.668Z,2.10
2022-12-12T01:48:55.430Z,2.10
2022-12-12T01:51:26.223Z,2.10
2022-12-12T01:54:05.780Z,2.10
2022-12-12T01:56:36.018Z,2.10
2022-12-12T01:59:08.133Z,2.10
2022-12-12T02:01:35.999Z,2.10
2022-12-12T02:04:03.934Z,2.10
2022-12-12T02:06:31.438Z,2.10
2022-12-12T02:09:04.526Z,2.10
2022-12-12T02:11:33.371Z,2.10
2022-12-12T02:14:00.699Z,2.10
2022-12-12T02:16:48.140Z,2.00
2022-12-12T02:19:41.434Z,2.00
2022-12-12T02:22:34.873Z,2.00
2022-12-12T02:26:00.586Z,2.00
2022-12-12T02:29:00.092Z,2.00
2022-12-12T02:31:52.526Z,2.00
2022-12-12T02:34:31.067Z,2.00
2022-12-12T02:37:22.176Z,1.80
2022-12-12T02:40:21.657Z,1.80
2022-12-12T02:43:09.590Z,1.70
2022-12-12T02:46:13.275Z,1.70
2022-12-12T02:48:50.899Z,1.60
2022-12-12T02:51:19.577Z,1.60
2022-12-12T02:53:46.586Z,1.70
2022-12-12T02:56:51.071Z,1.60
2022-12-12T02:59:30.287Z,1.60
2022-12-12T03:02:45.365Z,1.60
2022-12-12T03:05:49.413Z,1.80
2022-12-12T03:08:56.558Z,1.70
2022-12-12T03:11:52.615Z,1.60
2022-12-12T03:14:41.356Z,1.60
2022-12-12T03:17:38.945Z,1.50
2022-12-12T03:20:36.902Z,1.40
2022-12-12T03:23:17.764Z,1.40
2022-12-12T03:25:53.741Z,1.40
2022-12-12T03:28:47.690Z,1.40
2022-12-12T03:31:20.104Z,1.40
2022-12-12T03:34:17.733Z,1.30
2022-12-12T03:37:08.026Z,1.20
2022-12-12T03:39:40.582Z,1.30
2022-12-12T03:42:24.724Z,1.20
2022-12-12T03:45:04.028Z,1.20
2022-12-12T03:47:45.542Z,1.20
2022-12-12T03:50:25.115Z,1.10
2022-12-12T03:53:15.994Z,1.20
2022-12-12T03:56:02.567Z,1.10
2022-12-12T03:58:49.012Z,1.10
2022-12-12T04:01:24.598Z,1.00
2022-12-12T04:04:13.400Z,0.90
2022-12-12T04:06:54.588Z,0.90
2022-12-12T04:09:42.618Z,0.90
2022-12-12T04:13:03.335Z,0.70
2022-12-12T04:16:03.493Z,0.60
2022-12-12T04:18:48.988Z,0.60
2022-12-12T04:21:49.062Z,0.50
2022-12-12T04:24:24.830Z,0.40
2022-12-12T04:27:00.408Z,0.40
2022-12-12T04:29:53.251Z,0.30
2022-12-12T04:32:29.694Z,0.40
2022-12-12T04:35:09.877Z,0.30
2022-12-12T04:37:49.113Z,0.30
2022-12-12T04:40:24.983Z,0.30
2022-12-12T04:43:05.929Z,0.30
2022-12-12T04:45:41.745Z,0.30
2022-12-12T04:48:14.620Z,0.30
2022-12-12T04:50:48.719Z,0.40
2022-12-12T04:53:23.722Z,0.50
2022-12-12T04:55:58.723Z,0.50
2022-12-12T04:58:27.211Z,0.40
2022-12-12T05:01:16.335Z,0.30
2022-12-12T05:03:55.428Z,0.20
2022-12-12T05:06:38.802Z,0.20
2022-12-12T05:09:07.422Z,0.20
2022-12-12T05:11:35.428Z,0.10
2022-12-12T05:14:02.362Z,0.10
2022-12-12T05:16:48.585Z,0.00
2022-12-12T05:19:15.726Z,0.00
2022-12-12T05:21:42.525Z,0.00
2022-12-12T05:24:09.306Z,0.00
2022-12-12T05:26:36.738Z,0.00
2022-12-12T05:29:07.561Z,0.00
2022-12-12T05:31:35.614Z,0.00
2022-12-12T05:34:03.575Z,0.00
2022-12-12T05:36:30.643Z,0.00
2022-12-12T05:38:57.492Z,-0.10
2022-12-12T05:41:24.403Z,-0.10
2022-12-12T05:43:52.128Z,-0.10
2022-12-12T05:46:18.937Z,-0.10
2022-12-12T05:48:50.429Z,-0.10
2022-12-12T05:51:20.560Z,-0.10
2022-12-12T05:53:47.628Z,-0.20
2022-12-12T05:56:14.486Z,-0.20
2022-12-12T05:58:41.629Z,-0.20
2022-12-12T06:01:09.194Z,-0.30
2022-12-12T06:03:36.192Z,-0.30
2022-12-12T06:06:03.828Z,-0.30
2022-12-12T06:08:30.858Z,-0.30
2022-12-12T06:10:57.723Z,-0.40
2022-12-12T06:13:24.636Z,-0.40
2022-12-12T06:15:51.480Z,-0.40
2022-12-12T06:18:18.317Z,-0.40
2022-12-12T06:20:45.255Z,-0.50
2022-12-12T06:23:12.072Z,-0.50
2022-12-12T06:25:39.334Z,-0.40
2022-12-12T06:28:06.467Z,-0.40
2022-12-12T06:30:33.927Z,-0.40
2022-12-12T06:33:00.882Z,-0.50
2022-12-12T06:35:27.683Z,-0.50
2022-12-12T06:37:54.651Z,-0.50
2022-12-12T06:40:21.528Z,-0.50
2022-12-12T06:42:49.076Z,-0.50
2022-12-12T06:45:17.252Z,-0.60
2022-12-12T06:47:44.603Z,-0.50
2022-12-12T06:50:11.981Z,-0.60
2022-12-12T06:52:38.873Z,-0.60
2022-12-12T06:55:06.413Z,-0.50
2022-12-12T06:57:33.691Z,-0.60
2022-12-12T07:00:00.770Z,-0.60
2022-12-12T07:02:29.996Z,-0.60
2022-12-12T07:04:58.319Z,-0.60
2022-12-12T07:07:25.798Z,-0.60
2022-12-12T07:09:52.622Z,-0.70
2022-12-12T07:12:19.426Z,-0.60
2022-12-12T07:14:46.323Z,-0.60
2022-12-12T07:17:13.090Z,-0.80
2022-12-12T07:19:39.862Z,-0.70
2022-12-12T07:22:10.112Z,-0.70
2022-12-12T07:24:38.018Z,-0.70
2022-12-12T07:27:06.476Z,-0.80
2022-12-12T07:29:33.902Z,-0.70
2022-12-12T07:32:00.894Z,-0.70
2022-12-12T07:34:29.601Z,-0.70
2022-12-12T07:37:02.590Z,-0.80
2022-12-12T07:39:32.597Z,-0.80
2022-12-12T07:41:59.859Z,-0.80
2022-12-12T07:44:26.851Z,-0.80
2022-12-12T07:46:53.791Z,-0.70
2022-12-12T07:49:20.630Z,-0.70
2022-12-12T07:51:49.344Z,-0.80
2022-12-12T07:54:17.078Z,-0.80
2022-12-12T07:56:43.990Z,-0.80
2022-12-12T07:59:11.877Z,-0.80
2022-12-12T08:01:39.162Z,-0.80
2022-12-12T08:04:06.427Z,-0.80
2022-12-12T08:06:33.237Z,-0.80
2022-12-12T08:09:00.034Z,-0.80
2022-12-12T08:11:26.922Z,-0.60
2022-12-12T08:13:54.242Z,-0.60
2022-12-12T08:16:25.661Z,-0.60
2022-12-12T08:18:56.115Z,-0.70
2022-12-12T08:21:26.155Z,-0.70
2022-12-12T08:24:02.472Z,-0.70
2022-12-12T08:26:32.069Z,-0.70
2022-12-12T08:28:59.412Z,-0.70
2022-12-12T08:31:27.853Z,-0.70
2022-12-12T08:33:55.268Z,-0.70
2022-12-12T08:36:31.009Z,-0.70
2022-12-12T08:39:04.085Z,-0.70
2022-12-12T08:41:30.977Z,-0.70
2022-12-12T08:43:57.926Z,-0.60
2022-12-12T08:46:24.999Z,-0.60
2022-12-12T08:48:51.994Z,-0.60
2022-12-12T08:51:19.395Z,-0.60
2022-12-12T08:53:48.474Z,-0.50
2022-12-12T08:56:17.337Z,-0.40
2022-12-12T08:58:44.534Z,-0.40
2022-12-12T09:01:14.148Z,-0.40
2022-12-12T09:03:40.947Z,-0.40
2022-12-12T09:06:10.147Z,-0.50
2022-12-12T09:08:38.610Z,-0.40
2022-12-12T09:11:06.305Z,-0.30
2022-12-12T09:13:34.268Z,-0.20
2022-12-12T09:16:01.429Z,-0.10
2022-12-12T09:18:28.320Z,0.00
2022-12-12T09:20:57.652Z,0.00
2022-12-12T09:23:26.637Z,0.10
2022-12-12T09:25:54.728Z,0.00
2022-12-12T09:28:25.477Z,0.10
2022-12-12T09:30:52.606Z,0.20
2022-12-12T09:33:20.137Z,0.30
2022-12-12T09:35:47.080Z,0.40
2022-12-12T09:38:15.215Z,0.50
2022-12-12T09:41:09.239Z,0.60
2022-12-12T09:43:54.935Z,0.50
2022-12-12T09:46:44.018Z,0.60
2022-12-12T09:49:43.070Z,0.60
2022-12-12T09:52:26.427Z,0.70
2022-12-12T09:55:06.179Z,0.70
2022-12-12T09:57:49.969Z,0.80
2022-12-12T10:00:18.726Z,0.90
2022-12-12T10:03:10.838Z,0.90
2022-12-12T10:06:28.186Z,1.00
2022-12-12T10:09:24.103Z,1.00
2022-12-12T10:11:54.975Z,1.10
2022-12-12T10:14:40.512Z,1.20
2022-12-12T10:17:20.342Z,1.30
2022-12-12T10:19:55.958Z,1.30
2022-12-12T10:22:40.270Z,1.20
2022-12-12T10:25:43.969Z,1.30
2022-12-12T10:28:19.763Z,1.30
2022-12-12T10:31:15.368Z,1.40
2022-12-12T10:34:03.230Z,1.40
2022-12-12T10:36:58.385Z,1.40
2022-12-12T10:39:37.401Z,1.40
2022-12-12T10:42:25.906Z,1.50
2022-12-12T10:45:21.673Z,1.50
2022-12-12T10:47:49.567Z,1.50
2022-12-12T10:50:28.626Z,1.50
2022-12-12T10:52:55.487Z,1.60
2022-12-12T10:55:38.759Z,1.60
2022-12-12T10:58:06.991Z,1.70
2022-12-12T11:00:38.286Z,1.60
2022-12-12T11:03:32.053Z,1.60
2022-12-12T11:06:07.477Z,1.60
2022-12-12T11:08:37.103Z,1.70
2022-12-12T11:11:19.149Z,1.90
2022-12-12T11:14:00.333Z,1.90
2022-12-12T11:16:43.063Z,1.80
2022-12-12T11:19:19.883Z,1.80
2022-12-12T11:21:48.223Z,2.00
2022-12-12T11:24:20.041Z,1.90
2022-12-12T11:27:00.476Z,1.80
2022-12-12T11:29:44.171Z,1.70
2022-12-12T11:32:32.550Z,1.70
2022-12-12T11:35:03.484Z,1.70
2022-12-12T11:37:54.471Z,1.90
2022-12-12T11:40:34.827Z,1.90
2022-12-12T11:43:29.788Z,1.80
2022-12-12T11:46:15.031Z,1.90
2022-12-12T11:48:53.855Z,1.90
2022-12-12T11:51:40.120Z,1.90
2022-12-12T11:54:22.241Z,1.80
2022-12-12T11:57:39.483Z,1.80
2022-12-12T12:00:22.537Z,1.80
2022-12-12T12:03:21.374Z,1.90
2022-12-12T12:06:13.874Z,1.80
2022-12-12T12:09:05.403Z,1.70
2022-12-12T12:11:53.612Z,1.70
2022-12-12T12:15:15.673Z,1.70
2022-12-12T12:18:30.776Z,1.70
2022-12-12T12:21:28.657Z,1.70
2022-12-12T12:24:23.022Z,1.60
2022-12-12T12:27:13.677Z,1.50
2022-12-12T12:30:25.575Z,1.70
2022-12-12T12:33:21.129Z,1.80
2022-12-12T12:36:20.681Z,1.70
2022-12-12T12:39:35.330Z,1.80
2022-12-12T12:42:20.178Z,1.90
2022-12-12T12:45:20.409Z,2.00
2022-12-12T12:48:10.186Z,2.00
2022-12-12T12:50:57.939Z,2.00
2022-12-12T12:53:43.478Z,2.10
2022-12-12T12:56:36.733Z,2.00
2022-12-12T12:59:24.481Z,2.10
2022-12-12T13:01:53.818Z,2.10
2022-12-12T13:04:29.179Z,2.00
2022-12-12T13:07:05.695Z,2.00
2022-12-12T13:09:52.269Z,1.90
2022-12-12T13:12:46.691Z,2.00
2022-12-12T13:15:22.220Z,2.00
2022-12-12T13:17:58.080Z,1.90
2022-12-12T13:20:26.950Z,1.90
2022-12-12T13:23:21.689Z,2.00
2022-12-12T13:26:25.689Z,2.00
2022-12-12T13:29:04.030Z,2.00
2022-12-12T13:32:09.013Z,1.90
2022-12-12T13:34:45.867Z,2.00
2022-12-12T13:37:20.549Z,2.00
2022-12-12T13:40:01.267Z,2.00
2022-12-12T13:42:57.139Z,1.90
2022-12-12T13:45:35.791Z,2.00
2022-12-12T13:48:09.439Z,1.90
2022-12-12T13:50:36.410Z,1.90
2022-12-12T13:53:06.315Z,1.90
2022-12-12T13:55:35.112Z,1.90
2022-12-12T13:58:08.202Z,1.80
2022-12-12T14:00:37.401Z,1.90
2022-12-12T14:03:10.519Z,1.90
2022-12-12T14:06:11.658Z,1.90
2022-12-12T14:08:48.229Z,1.90
2022-12-12T14:11:32.934Z,1.80
2022-12-12T14:14:22.563Z,1.90
2022-12-12T14:16:56.296Z,1.90
2022-12-12T14:19:33.706Z,1.80
2022-12-12T14:22:01.593Z,1.70
2022-12-12T14:24:34.657Z,1.70
2022-12-12T14:27:07.297Z,1.80
2022-12-12T14:29:45.362Z,1.70
2022-12-12T14:32:12.131Z,1.60
2022-12-12T14:34:52.432Z,1.60
2022-12-12T14:37:54.286Z,1.50
2022-12-12T14:40:28.030Z,1.40
2022-12-12T14:43:19.776Z,1.40
2022-12-12T14:45:51.226Z,1.30
2022-12-12T14:48:24.200Z,1.40
2022-12-12T14:51:11.821Z,1.50
2022-12-12T14:53:38.587Z,1.40
2022-12-12T14:56:47.636Z,1.40
2022-12-12T14:59:44.864Z,1.30
2022-12-12T15:02:33.864Z,1.10
2022-12-12T15:05:07.339Z,1.10
2022-12-12T15:07:38.487Z,1.00
2022-12-12T15:10:28.197Z,1.00
2022-12-12T15:12:55.291Z,1.00
2022-12-12T15:15:27.475Z,1.00
2022-12-12T15:17:58.714Z,0.90
2022-12-12T15:20:30.732Z,0.80
2022-12-12T15:23:02.434Z,0.80
2022-12-12T15:25:46.168Z,0.70
2022-12-12T15:28:20.245Z,0.70
2022-12-12T15:30:53.140Z,0.70
2022-12-12T15:33:22.338Z,0.60
2022-12-12T15:36:01.465Z,0.60
2022-12-12T15:38:30.053Z,0.50
2022-12-12T15:41:08.160Z,0.50
2022-12-12T15:43:42.976Z,0.40
2022-12-12T15:46:15.687Z,0.40
2022-12-12T15:48:52.262Z,0.40
2022-12-12T15:51:24.667Z,0.30
2022-12-12T15:53:55.354Z,0.30
2022-12-12T15:56:23.466Z,0.40
2022-12-12T15:59:09.514Z,0.20
2022-12-12T16:01:36.662Z,0.20
2022-12-12T16:04:22.450Z,0.20
2022-12-12T16:06:50.052Z,0.10
2022-12-12T16:09:23.971Z,0.10
2022-12-12T16:11:58.790Z,0.10
2022-12-12T16:14:42.554Z,0.10
2022-12-12T16:17:25.351Z,0.00
2022-12-12T16:20:03.691Z,-0.10
2022-12-12T16:22:33.539Z,-0.10
2022-12-12T16:25:23.314Z,0.00
2022-12-12T16:28:05.320Z,0.00
2022-12-12T16:30:33.127Z,-0.10
2022-12-12T16:33:34.202Z,0.00
2022-12-12T16:36:11.940Z,-0.10
2022-12-12T16:38:40.389Z,-0.20
2022-12-12T16:41:14.267Z,-0.20
2022-12-12T16:43:42.068Z,-0.30
2022-12-12T16:46:24.661Z,-0.30
2022-12-12T16:48:52.500Z,-0.20
2022-12-12T16:51:28.938Z,-0.30
2022-12-12T16:53:56.735Z,-0.30
2022-12-12T16:56:24.728Z,-0.40
2022-12-12T16:58:53.197Z,-0.40
2022-12-12T17:01:21.186Z,-0.50
2022-12-12T17:03:48.164Z,-0.40
2022-12-12T17:06:15.043Z,-0.50
2022-12-12T17:08:41.810Z,-0.50
2022-12-12T17:11:11.059Z,-0.60
2022-12-12T17:13:49.911Z,-0.60
2022-12-12T17:16:20.298Z,-0.60
2022-12-12T17:18:49.576Z,-0.60
2022-12-12T17:21:16.424Z,-0.50
2022-12-12T17:23:43.246Z,-0.50
2022-12-12T17:26:11.371Z,-0.50
2022-12-12T17:28:38.259Z,-0.60
2022-12-12T17:31:09.458Z,-0.60
2022-12-12T17:33:45.852Z,-0.60
2022-12-12T17:36:17.658Z,-0.70
2022-12-12T17:38:44.569Z,-0.70
2022-12-12T17:41:12.696Z,-0.80
2022-12-12T17:43:41.357Z,-0.80
2022-12-12T17:46:15.013Z,-0.80
2022-12-12T17:48:46.675Z,-0.80
2022-12-12T17:51:18.193Z,-0.90
2022-12-12T17:53:45.466Z,-0.90
2022-12-12T17:56:16.750Z,-0.90
2022-12-12T17:58:46.181Z,-0.90
2022-12-12T18:01:21.404Z,-1.00
2022-12-12T18:03:49.671Z,-1.00
2022-12-12T18:06:18.692Z,-1.00
2022-12-12T18:08:46.836Z,-1.00
2022-12-12T18:11:19.506Z,-1.00
2022-12-12T18:13:50.436Z,-1.00
2022-12-12T18:16:18.373Z,-1.00
2022-12-12T18:18:45.288Z,-1.10
2022-12-12T18:21:42.824Z,-1.10
2022-12-12T18:24:04.172Z,-1.10
2022-12-12T18:26:31.240Z,-1.10
2022-12-12T18:29:01.901Z,-1.10
2022-12-12T18:31:30.182Z,-1.20
2022-12-12T18:33:57.481Z,-1.20
2022-12-12T18:36:28.240Z,-1.20
2022-12-12T18:38:56.533Z,-1.30
2022-12-12T18:41:24.340Z,-1.40
2022-12-12T18:43:51.234Z,-1.40
2022-12-12T18:46:22.273Z,-1.30
2022-12-12T18:48:49.612Z,-1.40
2022-12-12T18:51:23.813Z,-1.40
2022-12-12T18:53:53.881Z,-1.40
2022-12-12T18:56:25.513Z,-1.40
2022-12-12T18:58:54.338Z,-1.40
2022-12-12T19:01:26.794Z,-1.40
2022-12-12T19:03:58.872Z,-1.40
2022-12-12T19:06:36.643Z,-1.50
2022-12-12T19:09:15.471Z,-1.50
2022-12-12T19:11:43.774Z,-1.50
2022-12-12T19:14:14.082Z,-1.40
2022-12-12T19:16:43.234Z,-1.50
2022-12-12T19:19:12.090Z,-1.60
2022-12-12T19:21:41.809Z,-1.50
2022-12-12T19:24:11.952Z,-1.70
2022-12-12T19:26:44.357Z,-1.70
2022-12-12T19:29:15.458Z,-1.70
2022-12-12T19:31:43.063Z,-1.70
2022-12-12T19:34:12.930Z,-1.70
2022-12-12T19:36:40.498Z,-1.70
2022-12-12T19:39:08.808Z,-1.80
2022-12-12T19:41:36.362Z,-1.80
2022-12-12T19:44:04.618Z,-1.80
2022-12-12T19:46:33.045Z,-1.70
2022-12-12T19:49:04.625Z,-1.80
2022-12-12T19:51:32.913Z,-1.80
2022-12-12T19:54:00.636Z,-1.80
2022-12-12T19:56:31.526Z,-1.80
2022-12-12T19:58:59.894Z,-1.90
2022-12-12T20:01:31.035Z,-1.90
2022-12-12T20:04:02.910Z,-1.90
2022-12-12T20:06:29.954Z,-1.90
2022-12-12T20:09:00.036Z,-1.90
2022-12-12T20:11:27.471Z,-1.90
2022-12-12T20:13:57.046Z,-2.00
2022-12-12T20:16:28.732Z,-2.00
2022-12-12T20:18:56.926Z,-2.00
2022-12-12T20:21:59.799Z,-2.00
2022-12-12T20:24:17.642Z,-2.00
2022-12-12T20:26:45.529Z,-2.10
2022-12-12T20:29:14.399Z,-2.10
2022-12-12T20:31:45.442Z,-2.10
2022-12-12T20:34:14.870Z,-2.10
2022-12-12T20:36:44.078Z,-2.10
2022-12-12T20:39:19.275Z,-2.10
2022-12-12T20:41:46.381Z,-2.10
2022-12-12T20:44:14.373Z,-2.20
2022-12-12T20:46:44.747Z,-2.20
2022-12-12T20:49:19.338Z,-2.20
2022-12-12T20:51:55.824Z,-2.20
2022-12-12T20:54:24.443Z,-2.30
2022-12-12T20:56:53.291Z,-2.30
2022-12-12T20:59:20.213Z,-2.30
2022-12-12T21:01:47.562Z,-2.30
2022-12-12T21:04:15.586Z,-2.40
2022-12-12T21:06:48.182Z,-2.30
2022-12-12T21:09:23.757Z,-2.30
2022-12-12T21:11:57.973Z,-2.40
2022-12-12T21:14:27.144Z,-2.40
2022-12-12T21:16:54.600Z,-2.30
2022-12-12T21:19:23.123Z,-2.40
2022-12-12T21:21:50.583Z,-2.40
2022-12-12T21:24:18.696Z,-2.40
2022-12-12T21:26:47.006Z,-2.40
2022-12-12T21:29:15.309Z,-2.50
2022-12-12T21:31:50.394Z,-2.50
2022-12-12T21:34:21.614Z,-2.50
2022-12-12T21:36:52.633Z,-2.50
2022-12-12T21:39:21.952Z,-2.50
2022-12-12T21:41:48.862Z,-2.60
2022-12-12T21:44:15.708Z,-2.60
2022-12-12T21:46:44.169Z,-2.60
2022-12-12T21:49:27.652Z,-2.60
2022-12-12T21:52:09.984Z,-2.60
2022-12-12T21:54:36.920Z,-2.60
2022-12-12T21:57:04.218Z,-2.60
2022-12-12T21:59:31.051Z,-2.70
2022-12-12T22:02:00.399Z,-2.80
2022-12-12T22:04:27.814Z,-2.80
2022-12-12T22:06:57.008Z,-2.80
2022-12-12T22:09:24.566Z,-2.70
2022-12-12T22:11:52.476Z,-2.70
2022-12-12T22:14:30.831Z,-2.70
2022-12-12T22:16:57.600Z,-2.80
2022-12-12T22:19:24.879Z,-2.80
2022-12-12T22:21:51.851Z,-2.80
2022-12-12T22:24:18.979Z,-2.80
2022-12-12T22:26:49.162Z,-2.80
2022-12-12T22:29:20.139Z,-2.80
2022-12-12T22:31:49.882Z,-2.90
2022-12-12T22:34:21.860Z,-2.90
2022-12-12T22:36:49.027Z,-2.90
2022-12-12T22:39:19.613Z,-3.00
2022-12-12T22:41:46.758Z,-3.00
2022-12-12T22:44:16.929Z,-3.00
2022-12-12T22:46:46.389Z,-2.90
2022-12-12T22:49:16.802Z,-3.00
2022-12-12T22:51:44.640Z,-3.00
2022-12-12T22:54:12.154Z,-3.10
2022-12-12T22:56:40.660Z,-3.10
2022-12-12T22:59:10.654Z,-3.10
2022-12-12T23:01:37.543Z,-3.10
2022-12-12T23:04:04.641Z,-3.10
2022-12-12T23:06:35.340Z,-3.10
2022-12-12T23:09:21.918Z,-3.10
2022-12-12T23:11:49.238Z,-3.10
2022-12-12T23:14:21.538Z,-3.10
2022-12-12T23:16:50.522Z,-3.00
2022-12-12T23:19:21.658Z,-3.20
2022-12-12T23:21:48.519Z,-3.20
2022-12-12T23:24:15.485Z,-3.10
2022-12-12T23:26:43.322Z,-3.10
2022-12-12T23:29:16.176Z,-3.20
2022-12-12T23:31:43.484Z,-3.20
2022-12-12T23:34:20.481Z,-3.20
2022-12-12T23:36:47.864Z,-3.20
2022-12-12T23:39:15.566Z,-3.20
2022-12-12T23:41:44.129Z,-3.20
2022-12-12T23:44:15.170Z,-3.30
2022-12-12T23:46:42.681Z,-3.30
2022-12-12T23:49:21.405Z,-3.30
2022-12-12T23:51:58.189Z,-3.30
2022-12-12T23:54:32.394Z,-3.30
2022-12-12T23:57:00.272Z,-3.30
2022-12-12T23:59:27.496Z,-3.30
